sensor_id;sensor_type;location;lat;lon;timestamp;pressure;altitude;pressure_sealevel;temperature;humidity
23016;BME280;11674;52.428;13.584;2022-10-17T00:01:21;101959.06;;;15.58;66.98
23016;BME280;11674;52.428;13.584;2022-10-17T00:03:52;101955.47;;;15.58;66.64
23016;BME280;11674;52.428;13.584;2022-10-17T00:06:24;101953.47;;;15.58;66.73
23016;BME280;11674;52.428;13.584;2022-10-17T00:08:56;101960.75;;;15.59;66.90
23016;BME280;11674;52.428;13.584;2022-10-17T00:11:22;101959.63;;;15.60;66.84
23016;BME280;11674;52.428;13.584;2022-10-17T00:13:55;101956.53;;;15.62;66.79
23016;BME280;11674;52.428;13.584;2022-10-17T00:16:33;101960.16;;;15.62;67.12
23016;BME280;11674;52.428;13.584;2022-10-17T00:19:06;101958.47;;;15.66;66.91
23016;BME280;11674;52.428;13.584;2022-10-17T00:21:32;101963.16;;;15.71;66.99
23016;BME280;11674;52.428;13.584;2022-10-17T00:24:04;101958.94;;;15.73;66.76
23016;BME280;11674;52.428;13.584;2022-10-17T00:26:35;101946.31;;;15.76;66.86
23016;BME280;11674;52.428;13.584;2022-10-17T00:29:07;101937.63;;;15.77;67.09
23016;BME280;11674;52.428;13.584;2022-10-17T00:31:39;101949.09;;;15.76;66.99
23016;BME280;11674;52.428;13.584;2022-10-17T00:34:11;101932.91;;;15.73;67.27
23016;BME280;11674;52.428;13.584;2022-10-17T00:36:43;101938.81;;;15.71;66.98
23016;BME280;11674;52.428;13.584;2022-10-17T00:39:16;101942.72;;;15.70;67.02
23016;BME280;11674;52.428;13.584;2022-10-17T00:41:47;101953.69;;;15.67;67.24
23016;BME280;11674;52.428;13.584;2022-10-17T00:47:04;101954.84;;;15.61;67.04
23016;BME280;11674;52.428;13.584;2022-10-17T00:49:38;101948.72;;;15.59;67.10
23016;BME280;11674;52.428;13.584;2022-10-17T00:52:22;101939.50;;;15.58;67.07
23016;BME280;11674;52.428;13.584;2022-10-17T00:55:08;101939.25;;;15.55;67.31
23016;BME280;11674;52.428;13.584;2022-10-17T00:57:42;101946.56;;;15.51;66.94
23016;BME280;11674;52.428;13.584;2022-10-17T01:00:17;101948.81;;;15.49;67.32
23016;BME280;11674;52.428;13.584;2022-10-17T01:02:49;101949.69;;;15.49;67.45
23016;BME280;11674;52.428;13.584;2022-10-17T01:05:22;101942.09;;;15.50;67.25
23016;BME280;11674;52.428;13.584;2022-10-17T01:07:54;101949.34;;;15.51;67.30
23016;BME280;11674;52.428;13.584;2022-10-17T01:10:31;101958.84;;;15.55;67.62
23016;BME280;11674;52.428;13.584;2022-10-17T01:13:21;101956.00;;;15.60;67.71
23016;BME280;11674;52.428;13.584;2022-10-17T01:21:12;101953.09;;;15.70;67.45
23016;BME280;11674;52.428;13.584;2022-10-17T01:32:15;101931.09;;;15.58;67.35
23016;BME280;11674;52.428;13.584;2022-10-17T01:34:57;101926.41;;;15.54;67.45
23016;BME280;11674;52.428;13.584;2022-10-17T01:37:46;101924.50;;;15.49;67.47
23016;BME280;11674;52.428;13.584;2022-10-17T01:40:26;101920.34;;;15.47;67.58
23016;BME280;11674;52.428;13.584;2022-10-17T01:49:21;101909.81;;;15.34;67.52
23016;BME280;11674;52.428;13.584;2022-10-17T01:51:59;101910.94;;;15.33;67.72
23016;BME280;11674;52.428;13.584;2022-10-17T01:54:39;101913.19;;;15.31;67.72
23016;BME280;11674;52.428;13.584;2022-10-17T01:57:22;101914.59;;;15.28;68.00
23016;BME280;11674;52.428;13.584;2022-10-17T01:59:56;101912.09;;;15.27;67.67
23016;BME280;11674;52.428;13.584;2022-10-17T02:02:39;101909.28;;;15.27;67.84
23016;BME280;11674;52.428;13.584;2022-10-17T02:05:11;101920.75;;;15.25;67.79
23016;BME280;11674;52.428;13.584;2022-10-17T02:07:43;101923.03;;;15.23;67.71
23016;BME280;11674;52.428;13.584;2022-10-17T02:10:24;101918.84;;;15.21;68.04
23016;BME280;11674;52.428;13.584;2022-10-17T02:13:27;101923.66;;;15.15;68.24
23016;BME280;11674;52.428;13.584;2022-10-17T02:27:12;101929.88;;;15.07;68.13
23016;BME280;11674;52.428;13.584;2022-10-17T02:29:48;101929.88;;;15.07;68.31
23016;BME280;11674;52.428;13.584;2022-10-17T02:32:32;101926.22;;;15.07;68.27
23016;BME280;11674;52.428;13.584;2022-10-17T02:35:07;101917.84;;;15.07;68.37
23016;BME280;11674;52.428;13.584;2022-10-17T02:37:41;101917.31;;;15.05;68.58
23016;BME280;11674;52.428;13.584;2022-10-17T02:40:16;101912.84;;;15.04;68.39
23016;BME280;11674;52.428;13.584;2022-10-17T02:42:51;101915.09;;;15.02;68.54
23016;BME280;11674;52.428;13.584;2022-10-17T02:45:26;101919.88;;;15.01;68.64
23016;BME280;11674;52.428;13.584;2022-10-17T02:48:07;101919.56;;;15.03;68.77
23016;BME280;11674;52.428;13.584;2022-10-17T02:54:18;101912.84;;;15.04;69.01
23016;BME280;11674;52.428;13.584;2022-10-17T02:56:58;101906.66;;;15.07;68.59
23016;BME280;11674;52.428;13.584;2022-10-17T02:59:34;101908.91;;;15.10;68.90
23016;BME280;11674;52.428;13.584;2022-10-17T03:02:07;101909.72;;;15.10;69.06
23016;BME280;11674;52.428;13.584;2022-10-17T03:04:42;101915.53;;;15.14;68.87
23016;BME280;11674;52.428;13.584;2022-10-17T03:07:15;101911.31;;;15.16;68.95
23016;BME280;11674;52.428;13.584;2022-10-17T03:09:47;101904.91;;;15.16;69.27
23016;BME280;11674;52.428;13.584;2022-10-17T03:12:19;101916.91;;;15.16;69.09
23016;BME280;11674;52.428;13.584;2022-10-17T03:14:51;101915.50;;;15.19;69.43
23016;BME280;11674;52.428;13.584;2022-10-17T03:17:24;101902.63;;;15.23;69.50
23016;BME280;11674;52.428;13.584;2022-10-17T03:19:56;101900.91;;;15.27;69.32
23016;BME280;11674;52.428;13.584;2022-10-17T03:22:28;101902.00;;;15.31;69.38
23016;BME280;11674;52.428;13.584;2022-10-17T03:25:02;101906.72;;;15.35;69.33
23016;BME280;11674;52.428;13.584;2022-10-17T03:27:34;101914.22;;;15.40;69.67
23016;BME280;11674;52.428;13.584;2022-10-17T03:30:08;101908.88;;;15.43;69.93
23016;BME280;11674;52.428;13.584;2022-10-17T03:32:40;101910.50;;;15.49;69.95
23016;BME280;11674;52.428;13.584;2022-10-17T03:35:12;101908.47;;;15.55;69.93
23016;BME280;11674;52.428;13.584;2022-10-17T03:37:47;101907.28;;;15.61;69.95
23016;BME280;11674;52.428;13.584;2022-10-17T03:40:20;101903.31;;;15.67;69.81
23016;BME280;11674;52.428;13.584;2022-10-17T03:42:52;101895.41;;;15.74;69.78
23016;BME280;11674;52.428;13.584;2022-10-17T03:45:24;101900.41;;;15.77;69.93
23016;BME280;11674;52.428;13.584;2022-10-17T03:48:00;101900.13;;;15.78;70.18
23016;BME280;11674;52.428;13.584;2022-10-17T03:50:25;101905.41;;;15.80;70.23
23016;BME280;11674;52.428;13.584;2022-10-17T03:52:58;101898.69;;;15.81;69.68
23016;BME280;11674;52.428;13.584;2022-10-17T03:55:30;101896.72;;;15.81;70.07
23016;BME280;11674;52.428;13.584;2022-10-17T03:58:02;101895.03;;;15.80;70.17
23016;BME280;11674;52.428;13.584;2022-10-17T04:00:37;101888.06;;;15.78;70.04
23016;BME280;11674;52.428;13.584;2022-10-17T04:03:09;101898.44;;;15.77;70.22
23016;BME280;11674;52.428;13.584;2022-10-17T04:05:40;101892.84;;;15.77;70.11
23016;BME280;11674;52.428;13.584;2022-10-17T04:08:12;101892.56;;;15.79;70.07
23016;BME280;11674;52.428;13.584;2022-10-17T04:11:05;101892.56;;;15.79;70.10
23016;BME280;11674;52.428;13.584;2022-10-17T04:13:37;101896.19;;;15.79;70.04
23016;BME280;11674;52.428;13.584;2022-10-17T04:16:04;101884.97;;;15.79;70.50
23016;BME280;11674;52.428;13.584;2022-10-17T04:18:42;101881.38;;;15.79;70.46
23016;BME280;11674;52.428;13.584;2022-10-17T04:21:14;101876.59;;;15.79;70.30
23016;BME280;11674;52.428;13.584;2022-10-17T04:23:39;101866.81;;;15.77;70.47
23016;BME280;11674;52.428;13.584;2022-10-17T04:26:24;101869.09;;;15.75;70.38
23016;BME280;11674;52.428;13.584;2022-10-17T04:28:57;101879.44;;;15.74;70.53
23016;BME280;11674;52.428;13.584;2022-10-17T04:31:22;101873.84;;;15.74;70.36
23016;BME280;11674;52.428;13.584;2022-10-17T04:34:03;101877.78;;;15.73;70.38
23016;BME280;11674;52.428;13.584;2022-10-17T04:36:36;101877.56;;;15.70;70.57
23016;BME280;11674;52.428;13.584;2022-10-17T04:39:08;101894.09;;;15.66;70.81
23016;BME280;11674;52.428;13.584;2022-10-17T04:41:40;101886.28;;;15.63;70.44
23016;BME280;11674;52.428;13.584;2022-10-17T04:44:05;101880.97;;;15.62;70.59
23016;BME280;11674;52.428;13.584;2022-10-17T04:46:40;101882.41;;;15.59;70.90
23016;BME280;11674;52.428;13.584;2022-10-17T04:49:19;101878.25;;;15.57;70.54
23016;BME280;11674;52.428;13.584;2022-10-17T04:51:56;101880.81;;;15.53;70.69
23016;BME280;11674;52.428;13.584;2022-10-17T04:54:40;101869.66;;;15.48;70.91
23016;BME280;11674;52.428;13.584;2022-10-17T04:57:12;101876.69;;;15.46;70.79
23016;BME280;11674;52.428;13.584;2022-10-17T04:59:53;101892.94;;;15.44;70.60
23016;BME280;11674;52.428;13.584;2022-10-17T05:02:44;101882.88;;;15.43;70.82
23016;BME280;11674;52.428;13.584;2022-10-17T05:05:18;101879.53;;;15.41;70.81
23016;BME280;11674;52.428;13.584;2022-10-17T05:07:46;101881.78;;;15.39;70.76
23016;BME280;11674;52.428;13.584;2022-10-17T05:10:21;101880.13;;;15.38;71.14
23016;BME280;11674;52.428;13.584;2022-10-17T05:12:54;101876.50;;;15.37;71.17
23016;BME280;11674;52.428;13.584;2022-10-17T05:15:29;101874.31;;;15.34;71.19
23016;BME280;11674;52.428;13.584;2022-10-17T05:18:02;101890.25;;;15.34;71.13
23016;BME280;11674;52.428;13.584;2022-10-17T05:20:28;101882.09;;;15.32;71.03
23016;BME280;11674;52.428;13.584;2022-10-17T05:23:01;101886.88;;;15.32;71.01
23016;BME280;11674;52.428;13.584;2022-10-17T05:25:37;101893.28;;;15.32;71.10
23016;BME280;11674;52.428;13.584;2022-10-17T05:28:10;101892.47;;;15.32;71.21
23016;BME280;11674;52.428;13.584;2022-10-17T05:30:37;101889.69;;;15.32;71.06
23016;BME280;11674;52.428;13.584;2022-10-17T05:33:09;101897.22;;;15.31;71.42
23016;BME280;11674;52.428;13.584;2022-10-17T05:35:41;101890.81;;;15.31;71.09
23016;BME280;11674;52.428;13.584;2022-10-17T05:38:13;101887.44;;;15.29;71.42
23016;BME280;11674;52.428;13.584;2022-10-17T05:40:46;101888.31;;;15.29;71.46
23016;BME280;11674;52.428;13.584;2022-10-17T05:43:11;101889.97;;;15.30;71.45
23016;BME280;11674;52.428;13.584;2022-10-17T05:45:44;101884.38;;;15.30;71.56
23016;BME280;11674;52.428;13.584;2022-10-17T05:48:18;101879.31;;;15.32;71.76
23016;BME280;11674;52.428;13.584;2022-10-17T05:50:58;101876.50;;;15.32;71.76
23016;BME280;11674;52.428;13.584;2022-10-17T05:53:31;101876.25;;;15.34;71.87
23016;BME280;11674;52.428;13.584;2022-10-17T05:56:03;101881.28;;;15.37;71.91
23016;BME280;11674;52.428;13.584;2022-10-17T05:58:35;101893.84;;;15.39;71.91
23016;BME280;11674;52.428;13.584;2022-10-17T06:01:20;101894.88;;;15.43;71.75
23016;BME280;11674;52.428;13.584;2022-10-17T06:03:53;101900.44;;;15.48;71.93
23016;BME280;11674;52.428;13.584;2022-10-17T06:06:18;101898.72;;;15.52;72.10
23016;BME280;11674;52.428;13.584;2022-10-17T06:08:51;101895.03;;;15.57;71.82
23016;BME280;11674;52.428;13.584;2022-10-17T06:11:28;101902.53;;;15.61;72.20
23016;BME280;11674;52.428;13.584;2022-10-17T06:14:00;101908.91;;;15.67;72.02
23016;BME280;11674;52.428;13.584;2022-10-17T06:16:27;101906.34;;;15.70;72.12
23016;BME280;11674;52.428;13.584;2022-10-17T06:18:59;101930.06;;;15.78;72.20
23016;BME280;11674;52.428;13.584;2022-10-17T06:21:31;101922.44;;;15.83;72.32
23016;BME280;11674;52.428;13.584;2022-10-17T06:24:10;101929.94;;;15.88;72.34
23016;BME280;11674;52.428;13.584;2022-10-17T06:26:42;101939.13;;;15.93;72.39
23016;BME280;11674;52.428;13.584;2022-10-17T06:29:15;101932.91;;;15.96;72.45
23016;BME280;11674;52.428;13.584;2022-10-17T06:31:49;101938.16;;;16.03;72.44
23016;BME280;11674;52.428;13.584;2022-10-17T06:34:23;101935.03;;;16.09;72.49
23016;BME280;11674;52.428;13.584;2022-10-17T06:36:55;101934.97;;;16.14;72.12
23016;BME280;11674;52.428;13.584;2022-10-17T06:39:28;101938.50;;;16.20;72.43
23016;BME280;11674;52.428;13.584;2022-10-17T06:41:59;101945.19;;;16.24;72.28
23016;BME280;11674;52.428;13.584;2022-10-17T06:44:45;101946.78;;;16.30;72.32
23016;BME280;11674;52.428;13.584;2022-10-17T06:47:31;101941.13;;;16.35;72.45
23016;BME280;11674;52.428;13.584;2022-10-17T06:50:21;101950.03;;;16.42;72.56
23016;BME280;11674;52.428;13.584;2022-10-17T06:53:11;101950.50;;;16.49;72.48
23016;BME280;11674;52.428;13.584;2022-10-17T06:55:51;101958.53;;;16.55;72.67
23016;BME280;11674;52.428;13.584;2022-10-17T06:58:36;101950.91;;;16.61;72.63
23016;BME280;11674;52.428;13.584;2022-10-17T07:01:21;101945.22;;;16.66;72.68
23016;BME280;11674;52.428;13.584;2022-10-17T07:03:56;101958.03;;;16.72;72.81
23016;BME280;11674;52.428;13.584;2022-10-17T07:06:29;101960.75;;;16.77;72.71
23016;BME280;11674;52.428;13.584;2022-10-17T07:09:11;101953.09;;;16.82;72.78
23016;BME280;11674;52.428;13.584;2022-10-17T07:11:43;101956.38;;;16.89;72.79
23016;BME280;11674;52.428;13.584;2022-10-17T07:14:17;101957.09;;;16.95;72.97
23016;BME280;11674;52.428;13.584;2022-10-17T07:16:50;101958.38;;;17.02;72.93
23016;BME280;11674;52.428;13.584;2022-10-17T07:19:23;101961.66;;;17.09;72.81
23016;BME280;11674;52.428;13.584;2022-10-17T07:21:56;101959.59;;;17.15;72.94
23016;BME280;11674;52.428;13.584;2022-10-17T07:24:29;101957.22;;;17.22;72.52
23016;BME280;11674;52.428;13.584;2022-10-17T07:27:22;101955.19;;;17.27;72.94
23016;BME280;11674;52.428;13.584;2022-10-17T07:29:54;101959.88;;;17.32;72.85
23016;BME280;11674;52.428;13.584;2022-10-17T07:32:37;101959.53;;;17.38;72.60
23016;BME280;11674;52.428;13.584;2022-10-17T07:35:09;101962.53;;;17.42;72.37
23016;BME280;11674;52.428;13.584;2022-10-17T07:37:42;101968.06;;;17.47;72.49
23016;BME280;11674;52.428;13.584;2022-10-17T07:40:08;101961.22;;;17.53;72.26
23016;BME280;11674;52.428;13.584;2022-10-17T07:42:40;101967.59;;;17.58;72.32
23016;BME280;11674;52.428;13.584;2022-10-17T07:45:12;101967.72;;;17.67;72.37
23016;BME280;11674;52.428;13.584;2022-10-17T07:47:45;101969.28;;;17.73;72.11
23016;BME280;11674;52.428;13.584;2022-10-17T07:50:17;101976.16;;;17.80;71.90
23016;BME280;11674;52.428;13.584;2022-10-17T07:52:49;101972.63;;;17.88;72.16
23016;BME280;11674;52.428;13.584;2022-10-17T07:55:21;101969.13;;;17.96;72.06
23016;BME280;11674;52.428;13.584;2022-10-17T07:57:53;101967.28;;;18.05;71.66
23016;BME280;11674;52.428;13.584;2022-10-17T08:00:25;101968.50;;;18.13;71.78
23016;BME280;11674;52.428;13.584;2022-10-17T08:02:58;101964.13;;;18.20;71.31
23016;BME280;11674;52.428;13.584;2022-10-17T08:05:30;101958.59;;;18.29;71.58
23016;BME280;11674;52.428;13.584;2022-10-17T08:08:03;101973.34;;;18.39;71.42
23016;BME280;11674;52.428;13.584;2022-10-17T08:10:35;101966.16;;;18.47;71.06
23016;BME280;11674;52.428;13.584;2022-10-17T08:13:07;101969.91;;;18.56;71.01
23016;BME280;11674;52.428;13.584;2022-10-17T08:15:39;101966.53;;;18.67;70.86
23016;BME280;11674;52.428;13.584;2022-10-17T08:18:11;101969.97;;;18.78;70.84
23016;BME280;11674;52.428;13.584;2022-10-17T08:20:43;101970.53;;;18.88;70.59
23016;BME280;11674;52.428;13.584;2022-10-17T08:23:15;101970.00;;;19.00;70.50
23016;BME280;11674;52.428;13.584;2022-10-17T08:25:47;101966.09;;;19.09;69.98
23016;BME280;11674;52.428;13.584;2022-10-17T08:28:19;101972.56;;;19.23;70.09
23016;BME280;11674;52.428;13.584;2022-10-17T08:30:44;101970.00;;;19.35;70.01
23016;BME280;11674;52.428;13.584;2022-10-17T08:33:16;101974.72;;;19.48;69.76
23016;BME280;11674;52.428;13.584;2022-10-17T08:35:48;101970.69;;;19.63;69.33
23016;BME280;11674;52.428;13.584;2022-10-17T08:38:13;101966.47;;;19.74;68.95
23016;BME280;11674;52.428;13.584;2022-10-17T08:40:47;101963.69;;;19.82;68.44
23016;BME280;11674;52.428;13.584;2022-10-17T08:43:27;101965.88;;;19.94;68.21
23016;BME280;11674;52.428;13.584;2022-10-17T08:46:04;101954.34;;;20.04;68.21
23016;BME280;11674;52.428;13.584;2022-10-17T08:48:42;101956.91;;;20.14;67.75
23016;BME280;11674;52.428;13.584;2022-10-17T08:51:25;101956.28;;;20.25;67.77
23016;BME280;11674;52.428;13.584;2022-10-17T08:54:13;101948.69;;;20.34;67.62
23016;BME280;11674;52.428;13.584;2022-10-17T08:56:52;101955.72;;;20.45;67.29
23016;BME280;11674;52.428;13.584;2022-10-17T08:59:29;101938.81;;;20.54;67.16
23016;BME280;11674;52.428;13.584;2022-10-17T09:11:59;101949.38;;;20.96;65.91
23016;BME280;11674;52.428;13.584;2022-10-17T09:20:21;101963.47;;;21.30;65.32
23016;BME280;11674;52.428;13.584;2022-10-17T09:23:08;101946.50;;;21.38;64.96
23016;BME280;11674;52.428;13.584;2022-10-17T09:25:53;101964.63;;;21.46;64.89
23016;BME280;11674;52.428;13.584;2022-10-17T09:28:34;101955.66;;;21.52;64.21
23016;BME280;11674;52.428;13.584;2022-10-17T09:33:50;101948.63;;;21.67;63.71
23016;BME280;11674;52.428;13.584;2022-10-17T09:36:37;101950.63;;;21.75;63.60
23016;BME280;11674;52.428;13.584;2022-10-17T09:39:22;101946.13;;;21.82;63.34
23016;BME280;11674;52.428;13.584;2022-10-17T09:41:57;101942.44;;;21.90;63.14
23016;BME280;11674;52.428;13.584;2022-10-17T09:44:33;101954.19;;;22.01;63.03
23016;BME280;11674;52.428;13.584;2022-10-17T09:49:58;101942.81;;;22.18;62.61
23016;BME280;11674;52.428;13.584;2022-10-17T09:52:37;101947.63;;;22.26;62.44
23016;BME280;11674;52.428;13.584;2022-10-17T09:55:21;101944.41;;;22.36;61.91
23016;BME280;11674;52.428;13.584;2022-10-17T09:58:01;101939.53;;;22.45;62.10
23016;BME280;11674;52.428;13.584;2022-10-17T10:00:43;101939.16;;;22.55;61.67
23016;BME280;11674;52.428;13.584;2022-10-17T10:03:20;101938.44;;;22.66;61.52
23016;BME280;11674;52.428;13.584;2022-10-17T10:06:06;101934.88;;;22.78;61.37
23016;BME280;11674;52.428;13.584;2022-10-17T10:11:24;101925.31;;;23.03;61.03
23016;BME280;11674;52.428;13.584;2022-10-17T10:14:10;101926.22;;;23.15;60.67
23016;BME280;11674;52.428;13.584;2022-10-17T10:16:42;101934.00;;;23.27;60.47
23016;BME280;11674;52.428;13.584;2022-10-17T10:19:36;101937.72;;;23.39;60.14
23016;BME280;11674;52.428;13.584;2022-10-17T10:22:17;101936.22;;;23.54;59.68
23016;BME280;11674;52.428;13.584;2022-10-17T10:25:14;101935.19;;;23.70;59.72
23016;BME280;11674;52.428;13.584;2022-10-17T10:27:47;101930.03;;;23.84;59.50
23016;BME280;11674;52.428;13.584;2022-10-17T10:30:23;101933.44;;;23.98;58.98
23016;BME280;11674;52.428;13.584;2022-10-17T10:32:57;101923.63;;;24.08;58.86
23016;BME280;11674;52.428;13.584;2022-10-17T10:35:34;101927.88;;;24.14;58.18
23016;BME280;11674;52.428;13.584;2022-10-17T10:38:09;101929.28;;;24.20;58.19
23016;BME280;11674;52.428;13.584;2022-10-17T10:40:44;101929.78;;;24.22;57.75
23016;BME280;11674;52.428;13.584;2022-10-17T10:43:29;101933.19;;;24.27;57.77
23016;BME280;11674;52.428;13.584;2022-10-17T10:46:14;101937.84;;;24.32;57.26
23016;BME280;11674;52.428;13.584;2022-10-17T10:48:56;101937.22;;;24.38;57.25
23016;BME280;11674;52.428;13.584;2022-10-17T10:51:34;101926.47;;;24.44;56.94
23016;BME280;11674;52.428;13.584;2022-10-17T10:54:16;101925.50;;;24.52;56.90
23016;BME280;11674;52.428;13.584;2022-10-17T10:56:50;101926.25;;;24.61;56.73
23016;BME280;11674;52.428;13.584;2022-10-17T10:59:30;101921.75;;;24.72;56.29
23016;BME280;11674;52.428;13.584;2022-10-17T11:02:14;101922.91;;;24.83;56.10
23016;BME280;11674;52.428;13.584;2022-10-17T11:05:01;101929.72;;;24.94;55.91
23016;BME280;11674;52.428;13.584;2022-10-17T11:07:39;101920.25;;;25.02;55.98
23016;BME280;11674;52.428;13.584;2022-10-17T11:10:49;101921.41;;;25.13;56.05
23016;BME280;11674;52.428;13.584;2022-10-17T11:13:29;101922.81;;;25.19;55.56
23016;BME280;11674;52.428;13.584;2022-10-17T11:18:46;101911.50;;;25.34;54.78
23016;BME280;11674;52.428;13.584;2022-10-17T11:21:38;101909.44;;;25.47;54.73
23016;BME280;11674;52.428;13.584;2022-10-17T11:24:22;101900.47;;;25.60;54.56
23016;BME280;11674;52.428;13.584;2022-10-17T11:27:00;101898.03;;;25.74;54.10
23016;BME280;11674;52.428;13.584;2022-10-17T11:29:35;101895.81;;;25.83;54.19
23016;BME280;11674;52.428;13.584;2022-10-17T11:32:19;101899.81;;;25.94;53.64
23016;BME280;11674;52.428;13.584;2022-10-17T11:35:02;101884.94;;;26.01;53.12
23016;BME280;11674;52.428;13.584;2022-10-17T11:37:39;101882.75;;;26.10;53.08
23016;BME280;11674;52.428;13.584;2022-10-17T11:40:21;101886.59;;;26.17;52.86
23016;BME280;11674;52.428;13.584;2022-10-17T11:43:01;101890.38;;;26.21;52.24
23016;BME280;11674;52.428;13.584;2022-10-17T11:45:39;101880.28;;;26.24;52.13
23016;BME280;11674;52.428;13.584;2022-10-17T11:48:20;101888.06;;;26.27;52.02
23016;BME280;11674;52.428;13.584;2022-10-17T11:51:06;101885.22;;;26.27;51.72
23016;BME280;11674;52.428;13.584;2022-10-17T11:54:01;101884.66;;;26.37;51.85
23016;BME280;11674;52.428;13.584;2022-10-17T12:00:16;101880.19;;;26.70;51.34
23016;BME280;11674;52.428;13.584;2022-10-17T12:03:02;101873.72;;;26.89;50.81
23016;BME280;11674;52.428;13.584;2022-10-17T12:05:47;101881.75;;;27.02;50.86
23016;BME280;11674;52.428;13.584;2022-10-17T12:08:59;101868.16;;;27.15;50.39
23016;BME280;11674;52.428;13.584;2022-10-17T12:17:28;101876.09;;;27.63;49.50
23016;BME280;11674;52.428;13.584;2022-10-17T12:22:56;101867.56;;;28.08;48.24
23016;BME280;11674;52.428;13.584;2022-10-17T12:25:34;101863.78;;;28.26;47.97
23016;BME280;11674;52.428;13.584;2022-10-17T12:30:49;101855.72;;;29.83;45.50
23016;BME280;11674;52.428;13.584;2022-10-17T12:33:32;101845.16;;;30.37;44.99
23016;BME280;11674;52.428;13.584;2022-10-17T12:49:42;101838.78;;;32.90;41.67
23016;BME280;11674;52.428;13.584;2022-10-17T13:03:27;101834.38;;;31.95;41.30
23016;BME280;11674;52.428;13.584;2022-10-17T13:06:04;101833.53;;;31.94;41.55
23016;BME280;11674;52.428;13.584;2022-10-17T13:08:43;101828.59;;;31.74;40.87
23016;BME280;11674;52.428;13.584;2022-10-17T13:11:22;101826.91;;;31.52;40.95
23016;BME280;11674;52.428;13.584;2022-10-17T13:13:57;101825.22;;;31.33;41.25
23016;BME280;11674;52.428;13.584;2022-10-17T13:16:35;101821.06;;;31.24;41.44
23016;BME280;11674;52.428;13.584;2022-10-17T13:19:17;101824.28;;;31.08;40.99
23016;BME280;11674;52.428;13.584;2022-10-17T13:21:53;101812.78;;;31.01;40.98
23016;BME280;11674;52.428;13.584;2022-10-17T13:27:04;101823.28;;;30.69;40.98
23016;BME280;11674;52.428;13.584;2022-10-17T13:29:30;101821.50;;;30.51;40.76
23016;BME280;11674;52.428;13.584;2022-10-17T13:32:03;101827.09;;;30.30;41.21
23016;BME280;11674;52.428;13.584;2022-10-17T13:34:35;101826.13;;;30.12;41.41
23016;BME280;11674;52.428;13.584;2022-10-17T13:37:11;101818.69;;;30.04;41.28
23016;BME280;11674;52.428;13.584;2022-10-17T13:39:45;101824.41;;;30.04;41.43
23016;BME280;11674;52.428;13.584;2022-10-17T13:42:21;101825.84;;;29.84;41.02
23016;BME280;11674;52.428;13.584;2022-10-17T13:44:56;101820.06;;;29.73;41.55
23016;BME280;11674;52.428;13.584;2022-10-17T13:47:36;101818.81;;;29.74;41.04
23016;BME280;11674;52.428;13.584;2022-10-17T13:50:20;101821.72;;;29.78;41.03
23016;BME280;11674;52.428;13.584;2022-10-17T13:56:05;101828.31;;;29.49;41.60
23016;BME280;11674;52.428;13.584;2022-10-17T13:58:50;101820.72;;;29.27;41.72
23016;BME280;11674;52.428;13.584;2022-10-17T14:01:23;101825.44;;;29.09;41.77
23016;BME280;11674;52.428;13.584;2022-10-17T14:03:57;101830.25;;;29.01;41.68
23016;BME280;11674;52.428;13.584;2022-10-17T14:06:30;101824.03;;;28.96;41.10
23016;BME280;11674;52.428;13.584;2022-10-17T14:09:05;101827.56;;;28.86;41.19
23016;BME280;11674;52.428;13.584;2022-10-17T14:11:40;101832.31;;;28.75;41.22
23016;BME280;11674;52.428;13.584;2022-10-17T14:14:21;101829.72;;;28.66;41.37
23016;BME280;11674;52.428;13.584;2022-10-17T14:16:54;101838.75;;;28.68;41.60
23016;BME280;11674;52.428;13.584;2022-10-17T14:19:34;101839.97;;;28.67;41.64
23016;BME280;11674;52.428;13.584;2022-10-17T14:24:51;101841.66;;;28.72;41.27
23016;BME280;11674;52.428;13.584;2022-10-17T14:32:59;101828.28;;;28.50;41.32
23016;BME280;11674;52.428;13.584;2022-10-17T14:35:31;101835.38;;;28.37;41.52
23016;BME280;11674;52.428;13.584;2022-10-17T14:38:05;101847.53;;;28.30;42.05
23016;BME280;11674;52.428;13.584;2022-10-17T14:40:37;101843.75;;;28.23;41.89
23016;BME280;11674;52.428;13.584;2022-10-17T14:43:22;101847.34;;;28.20;41.99
23016;BME280;11674;52.428;13.584;2022-10-17T14:45:49;101839.91;;;28.12;42.04
23016;BME280;11674;52.428;13.584;2022-10-17T14:48:23;101840.16;;;28.03;41.93
23016;BME280;11674;52.428;13.584;2022-10-17T14:51:10;101849.31;;;27.90;42.36
23016;BME280;11674;52.428;13.584;2022-10-17T14:53:59;101854.28;;;27.74;42.60
23016;BME280;11674;52.428;13.584;2022-10-17T14:56:51;101853.59;;;27.58;42.65
23016;BME280;11674;52.428;13.584;2022-10-17T14:59:23;101844.00;;;27.47;42.95
23016;BME280;11674;52.428;13.584;2022-10-17T15:01:49;101855.13;;;27.33;43.15
23016;BME280;11674;52.428;13.584;2022-10-17T15:04:21;101862.19;;;27.20;43.22
23016;BME280;11674;52.428;13.584;2022-10-17T15:06:53;101854.50;;;27.05;43.29
23016;BME280;11674;52.428;13.584;2022-10-17T15:09:25;101861.19;;;26.93;43.72
23016;BME280;11674;52.428;13.584;2022-10-17T15:12:01;101860.97;;;26.83;43.83
23016;BME280;11674;52.428;13.584;2022-10-17T15:14:34;101866.75;;;26.71;44.11
23016;BME280;11674;52.428;13.584;2022-10-17T15:17:18;101858.00;;;26.60;44.11
23016;BME280;11674;52.428;13.584;2022-10-17T15:19:50;101859.38;;;26.51;44.14
23016;BME280;11674;52.428;13.584;2022-10-17T15:22:22;101864.44;;;26.42;44.45
23016;BME280;11674;52.428;13.584;2022-10-17T15:24:54;101854.47;;;26.32;44.71